createdAt,value
2023-05-22T00:04:30.169Z,8.80
2023-05-22T00:09:33.373Z,8.10
2023-05-22T00:14:35.087Z,9.00
2023-05-22T00:19:36.863Z,9.10
2023-05-22T00:24:40.010Z,9.00
2023-05-22T00:29:41.781Z,8.00
2023-05-22T00:34:43.590Z,8.47
2023-05-22T00:39:47.188Z,8.50
2023-05-22T00:44:49.144Z,7.47
2023-05-22T00:49:50.870Z,8.27
2023-05-22T00:54:53.903Z,8.10
2023-05-22T00:59:55.591Z,7.60
2023-05-22T01:04:58.044Z,7.80
2023-05-22T01:10:01.211Z,8.33
2023-05-22T01:15:12.910Z,7.50
2023-05-22T01:20:18.170Z,7.97
2023-05-22T01:25:32.609Z,7.73
2023-05-22T01:30:44.512Z,7.53
2023-05-22T01:35:48.040Z,7.60
2023-05-22T01:40:49.846Z,8.07
2023-05-22T01:45:53.080Z,7.30
2023-05-22T01:50:54.910Z,7.17
2023-05-22T01:55:58.424Z,7.40
2023-05-22T02:01:03.093Z,7.70
2023-05-22T02:06:23.590Z,8.10
2023-05-22T02:11:26.846Z,8.07
2023-05-22T02:16:30.271Z,8.23
2023-05-22T02:21:33.353Z,8.10
2023-05-22T02:26:37.114Z,7.30
2023-05-22T02:31:40.294Z,7.43
2023-05-22T02:36:42.119Z,7.63
2023-05-22T02:41:44.018Z,7.40
2023-05-22T02:46:47.532Z,6.97
2023-05-22T02:51:49.332Z,7.70
2023-05-22T02:56:51.046Z,7.43
2023-05-22T03:01:54.518Z,7.57
2023-05-22T03:06:58.315Z,7.33
2023-05-22T03:12:00.768Z,7.20
2023-05-22T03:17:04.024Z,7.33
2023-05-22T03:22:06.598Z,8.03
2023-05-22T03:27:09.425Z,7.80
2023-05-22T03:32:16.243Z,6.93
2023-05-22T03:37:18.168Z,7.30
2023-05-22T03:42:20.345Z,7.93
2023-05-22T03:47:23.984Z,7.70
2023-05-22T03:52:26.437Z,7.17
2023-05-22T03:57:28.148Z,7.40
2023-05-22T04:02:32.437Z,7.40
2023-05-22T04:07:36.387Z,7.07
2023-05-22T04:12:38.173Z,7.13
2023-05-22T04:17:44.331Z,7.30
2023-05-22T04:22:46.422Z,8.00
2023-05-22T04:27:48.388Z,7.37
2023-05-22T04:32:51.522Z,7.13
2023-05-22T04:37:53.247Z,7.40
2023-05-22T04:42:54.962Z,7.70
2023-05-22T04:48:02.426Z,7.67
2023-05-22T04:53:07.245Z,7.27
2023-05-22T04:58:27.406Z,9.07
2023-05-22T05:03:48.789Z,7.20
2023-05-22T05:08:52.865Z,8.93
2023-05-22T05:13:54.631Z,6.80
2023-05-22T05:18:57.754Z,7.20
2023-05-22T05:23:59.504Z,7.10
2023-05-22T05:29:01.619Z,7.40
2023-05-22T05:34:13.465Z,7.20
2023-05-22T05:39:44.119Z,7.37
2023-05-22T05:44:46.125Z,6.53
2023-05-22T05:49:49.446Z,7.30
2023-05-22T05:54:51.863Z,7.07
2023-05-22T05:59:55.755Z,7.07
2023-05-22T06:05:19.163Z,7.13
2023-05-22T06:10:23.498Z,7.00
2023-05-22T06:15:32.263Z,7.73
2023-05-22T06:20:35.482Z,7.53
2023-05-22T06:25:37.330Z,7.40
2023-05-22T06:30:40.419Z,6.77
2023-05-22T06:35:48.114Z,7.77
2023-05-22T06:40:51.049Z,7.37
2023-05-22T06:45:56.633Z,7.90
2023-05-22T06:50:59.651Z,6.83
2023-05-22T06:56:01.806Z,6.90
2023-05-22T07:01:23.333Z,7.53
2023-05-22T07:06:39.041Z,7.40
2023-05-22T07:11:43.542Z,7.40
2023-05-22T07:16:45.777Z,7.73
2023-05-22T07:21:51.304Z,7.17
2023-05-22T07:26:55.556Z,7.50
2023-05-22T07:31:57.405Z,7.27
2023-05-22T07:37:08.764Z,7.70
2023-05-22T07:42:10.666Z,7.13
2023-05-22T07:47:19.836Z,7.60
2023-05-22T07:52:23.931Z,7.80
2023-05-22T07:57:27.274Z,7.40
2023-05-22T08:02:30.725Z,7.67
2023-05-22T08:07:33.880Z,6.80
2023-05-22T08:12:35.782Z,6.80
2023-05-22T08:17:37.539Z,7.20
2023-05-22T08:22:41.734Z,7.20
2023-05-22T08:27:43.474Z,6.43
2023-05-22T08:32:45.493Z,7.03
2023-05-22T08:37:48.587Z,7.03
2023-05-22T08:42:54.418Z,7.17
2023-05-22T08:47:56.265Z,7.17
2023-05-22T08:53:01.645Z,6.90
2023-05-22T08:58:03.358Z,6.77
2023-05-22T09:03:06.666Z,6.00
2023-05-22T09:08:19.627Z,6.73
2023-05-22T09:13:26.315Z,6.90
2023-05-22T09:18:28.796Z,7.40
2023-05-22T09:23:32.021Z,6.40
2023-05-22T09:28:35.180Z,6.87
2023-05-22T09:33:37.492Z,6.70
2023-05-22T09:38:40.508Z,6.80
2023-05-22T09:43:44.145Z,7.03
2023-05-22T09:48:50.173Z,6.10
2023-05-22T09:53:53.187Z,6.40
2023-05-22T09:58:55.034Z,6.40
2023-05-22T10:03:56.838Z,6.37
2023-05-22T10:09:02.594Z,6.40
2023-05-22T10:14:05.074Z,6.90
2023-05-22T10:19:07.683Z,5.70
2023-05-22T10:24:10.743Z,6.00
2023-05-22T10:29:18.000Z,6.07
2023-05-22T10:34:26.726Z,6.17
2023-05-22T10:39:35.200Z,6.67
2023-05-22T10:44:36.961Z,6.47
2023-05-22T10:49:42.610Z,6.00
2023-05-22T10:54:45.957Z,6.50
2023-05-22T10:59:47.799Z,6.00
2023-05-22T11:04:49.594Z,6.30
2023-05-22T11:09:58.954Z,5.90
2023-05-22T11:15:03.215Z,5.83
2023-05-22T11:20:07.421Z,6.30
2023-05-22T11:25:15.117Z,6.20
2023-05-22T11:30:17.370Z,7.37
2023-05-22T11:35:20.458Z,6.20
2023-05-22T11:40:25.544Z,6.60
2023-05-22T11:45:27.389Z,8.43
2023-05-22T11:50:41.062Z,7.40
2023-05-22T11:55:45.136Z,7.00
2023-05-22T12:00:46.834Z,6.67
2023-05-22T12:05:48.592Z,6.40
2023-05-22T12:10:52.413Z,7.50
2023-05-22T12:15:55.262Z,6.90
2023-05-22T12:20:57.125Z,7.00
2023-05-22T12:26:00.908Z,7.13
2023-05-22T12:31:02.672Z,6.93
2023-05-22T12:36:07.680Z,6.93
2023-05-22T12:41:10.755Z,6.67
2023-05-22T12:46:12.519Z,7.07
2023-05-22T12:51:14.342Z,6.73
2023-05-22T12:56:17.583Z,6.67
2023-05-22T13:01:19.533Z,7.20
2023-05-22T13:06:21.724Z,6.70
2023-05-22T13:11:26.466Z,7.57
2023-05-22T13:16:28.559Z,7.10
2023-05-22T13:21:31.637Z,7.30
2023-05-22T13:26:34.748Z,6.53
2023-05-22T13:31:37.952Z,6.83
2023-05-22T13:36:39.727Z,7.30
2023-05-22T13:41:42.807Z,7.20
2023-05-22T13:46:44.582Z,7.63
2023-05-22T13:51:46.319Z,7.80
2023-05-22T13:56:49.410Z,7.63
2023-05-22T14:01:51.295Z,7.47
2023-05-22T14:06:53.082Z,7.20
2023-05-22T14:11:57.813Z,6.90
2023-05-22T14:16:59.582Z,7.57
2023-05-22T14:22:01.465Z,6.50
2023-05-22T14:27:05.297Z,7.00
2023-05-22T14:32:07.131Z,7.20
2023-05-22T14:37:08.861Z,7.57
2023-05-22T14:42:11.876Z,6.60
2023-05-22T14:47:13.583Z,6.87
2023-05-22T14:52:15.409Z,6.83
2023-05-22T14:57:18.471Z,5.93
2023-05-22T15:02:20.872Z,6.53
2023-05-22T15:07:29.254Z,6.37
2023-05-22T15:12:38.790Z,6.80
2023-05-22T15:17:42.536Z,7.00
2023-05-22T15:22:44.785Z,6.80
2023-05-22T15:27:47.833Z,7.17
2023-05-22T15:32:49.571Z,6.37
2023-05-22T15:37:51.276Z,6.50
2023-05-22T15:42:54.434Z,6.73
2023-05-22T15:47:56.146Z,7.00
2023-05-22T15:52:57.851Z,7.27
2023-05-22T15:58:01.018Z,7.97
2023-05-22T16:03:02.934Z,6.40
2023-05-22T16:08:06.823Z,7.50
2023-05-22T16:13:12.884Z,7.20
2023-05-22T16:18:14.688Z,6.70
2023-05-22T16:23:16.358Z,7.07
2023-05-22T16:28:19.399Z,7.50
2023-05-22T16:33:21.147Z,6.60
2023-05-22T16:38:22.856Z,7.10
2023-05-22T16:43:26.070Z,6.60
2023-05-22T16:48:27.827Z,6.60
2023-05-22T16:53:29.588Z,6.60
2023-05-22T16:58:32.662Z,7.57
2023-05-22T17:03:34.678Z,6.70
2023-05-22T17:08:36.569Z,6.50
2023-05-22T17:13:39.597Z,7.13
2023-05-22T17:18:41.424Z,7.13
2023-05-22T17:23:43.331Z,7.43
2023-05-22T17:28:46.500Z,7.50
2023-05-22T17:33:48.323Z,16.47
2023-05-22T17:38:50.000Z,9.50
2023-05-22T17:43:54.577Z,8.90
2023-05-22T17:48:56.423Z,8.20
2023-05-22T17:53:59.006Z,8.73
2023-05-22T17:59:02.156Z,8.40
2023-05-22T18:04:04.823Z,7.80
2023-05-22T18:09:07.873Z,9.10
2023-05-22T18:14:11.070Z,8.43
2023-05-22T18:19:12.859Z,7.93
2023-05-22T18:24:15.117Z,8.03
2023-05-22T18:29:18.790Z,9.17
2023-05-22T18:34:20.628Z,10.47
2023-05-22T18:39:22.415Z,11.87
2023-05-22T18:44:25.526Z,13.67
2023-05-22T18:49:27.343Z,13.77
2023-05-22T18:54:29.091Z,14.27
2023-05-22T18:59:32.264Z,13.10
2023-05-22T19:04:34.174Z,13.33
2023-05-22T19:09:35.921Z,12.10
2023-05-22T19:14:40.091Z,11.50
2023-05-22T19:19:41.893Z,11.80
2023-05-22T19:24:43.776Z,11.00
2023-05-22T19:29:46.823Z,11.50
2023-05-22T19:34:49.602Z,10.50
2023-05-22T19:39:51.379Z,9.50
2023-05-22T19:44:55.300Z,9.13
2023-05-22T19:49:57.220Z,8.60
2023-05-22T19:54:59.087Z,9.07
2023-05-22T20:00:02.280Z,7.60
2023-05-22T20:05:13.522Z,6.97
2023-05-22T20:10:16.025Z,7.43
2023-05-22T20:15:19.134Z,5.77
2023-05-22T20:20:21.080Z,5.37
2023-05-22T20:25:23.055Z,5.27
2023-05-22T20:30:26.494Z,6.07
2023-05-22T20:35:30.415Z,6.60
2023-05-22T20:40:36.804Z,7.07
2023-05-22T20:45:40.259Z,6.80
2023-05-22T20:50:42.431Z,7.43
2023-05-22T20:55:44.537Z,8.43
2023-05-22T21:00:49.412Z,7.90
2023-05-22T21:05:51.244Z,7.93
2023-05-22T21:10:52.961Z,8.10
2023-05-22T21:15:56.092Z,8.60
2023-05-22T21:20:57.810Z,9.30
2023-05-22T21:25:59.684Z,9.33
2023-05-22T21:31:03.039Z,10.57
2023-05-22T21:36:05.237Z,11.90
2023-05-22T21:41:06.992Z,11.30
2023-05-22T21:46:10.095Z,11.43
2023-05-22T21:51:11.860Z,11.93
2023-05-22T21:56:13.570Z,13.00
2023-05-22T22:01:16.628Z,13.00
2023-05-22T22:06:18.388Z,13.13
2023-05-22T22:11:20.316Z,14.10
2023-05-22T22:16:24.278Z,13.23
2023-05-22T22:21:26.482Z,12.30
2023-05-22T22:26:30.603Z,14.13
2023-05-22T22:31:33.677Z,14.70
2023-05-22T22:36:38.826Z,14.30
2023-05-22T22:41:40.575Z,13.43
2023-05-22T22:46:44.024Z,13.40
2023-05-22T22:51:45.767Z,13.47
2023-05-22T22:56:49.408Z,14.20
2023-05-22T23:01:52.464Z,14.27
2023-05-22T23:06:54.170Z,14.50
2023-05-22T23:11:55.980Z,14.57
2023-05-22T23:16:59.052Z,16.33
2023-05-22T23:22:00.783Z,14.30
2023-05-22T23:27:02.595Z,14.47
2023-05-22T23:32:06.733Z,15.07
2023-05-22T23:37:08.481Z,16.03
2023-05-22T23:42:10.919Z,14.20
2023-05-22T23:47:14.025Z,15.30
2023-05-22T23:52:16.016Z,14.33
2023-05-22T23:57:17.777Z,14.90
